createdAt,value
2023-04-26T00:00:55.688Z,439.00
2023-04-26T00:01:55.665Z,439.00
2023-04-26T00:02:55.813Z,442.00
2023-04-26T00:03:55.795Z,443.00
2023-04-26T00:04:56.095Z,441.00
2023-04-26T00:05:55.703Z,440.00
2023-04-26T00:06:55.688Z,440.00
2023-04-26T00:07:55.690Z,441.00
2023-04-26T00:08:55.837Z,438.00
2023-04-26T00:09:55.834Z,440.00
2023-04-26T00:10:55.931Z,441.00
2023-04-26T00:11:55.964Z,441.00
2023-04-26T00:12:56.025Z,440.00
2023-04-26T00:13:56.089Z,441.00
2023-04-26T00:14:56.156Z,441.00
2023-04-26T00:15:56.236Z,443.00
2023-04-26T00:16:56.290Z,445.00
2023-04-26T00:17:56.381Z,443.00
2023-04-26T00:18:56.424Z,442.00
2023-04-26T00:19:56.477Z,441.00
2023-04-26T00:20:56.554Z,441.00
2023-04-26T00:21:56.633Z,438.00
2023-04-26T00:22:56.689Z,438.00
2023-04-26T00:23:56.760Z,439.00
2023-04-26T00:24:56.814Z,439.00
2023-04-26T00:25:56.877Z,439.00
2023-04-26T00:26:56.974Z,436.00
2023-04-26T00:27:57.000Z,437.00
2023-04-26T00:28:57.067Z,438.00
2023-04-26T00:29:57.135Z,438.00
2023-04-26T00:30:57.203Z,436.00
2023-04-26T00:31:57.372Z,436.00
2023-04-26T00:32:57.377Z,439.00
2023-04-26T00:33:57.393Z,439.00
2023-04-26T00:34:57.461Z,439.00
2023-04-26T00:35:57.513Z,439.00
2023-04-26T00:36:57.581Z,437.00
2023-04-26T00:37:57.642Z,437.00
2023-04-26T00:38:57.703Z,438.00
2023-04-26T00:39:57.755Z,438.00
2023-04-26T00:40:57.816Z,439.00
2023-04-26T00:41:57.893Z,440.00
2023-04-26T00:42:57.990Z,438.00
2023-04-26T00:43:58.001Z,439.00
2023-04-26T00:44:58.056Z,440.00
2023-04-26T00:45:58.178Z,439.00
2023-04-26T00:46:58.186Z,441.00
2023-04-26T00:47:58.319Z,439.00
2023-04-26T00:48:58.307Z,440.00
2023-04-26T00:49:58.370Z,441.00
2023-04-26T00:50:58.425Z,442.00
2023-04-26T00:51:58.489Z,441.00
2023-04-26T00:52:58.566Z,438.00
2023-04-26T00:53:58.633Z,437.00
2023-04-26T00:54:58.686Z,439.00
2023-04-26T00:55:58.783Z,438.00
2023-04-26T00:56:58.827Z,437.00
2023-04-26T00:57:58.867Z,436.00
2023-04-26T00:58:58.958Z,436.00
2023-04-26T00:59:58.995Z,437.00
2023-04-26T01:00:59.065Z,441.00
2023-04-26T01:01:59.132Z,440.00
2023-04-26T01:02:59.335Z,440.00
2023-04-26T01:03:59.400Z,440.00
2023-04-26T01:04:59.270Z,441.00
2023-04-26T01:05:59.327Z,442.00
2023-04-26T01:06:59.379Z,441.00
2023-04-26T01:07:59.453Z,442.00
2023-04-26T01:08:59.497Z,439.00
2023-04-26T01:09:59.565Z,438.00
2023-04-26T01:10:59.608Z,438.00
2023-04-26T01:11:59.665Z,439.00
2023-04-26T01:12:59.733Z,439.00
2023-04-26T01:13:59.782Z,441.00
2023-04-26T01:14:59.864Z,439.00
2023-04-26T01:15:59.893Z,440.00
2023-04-26T01:16:59.990Z,442.00
2023-04-26T01:18:00.077Z,442.00
2023-04-26T01:19:00.939Z,442.00
2023-04-26T01:20:00.212Z,441.00
2023-04-26T01:21:02.771Z,440.00
2023-04-26T01:22:00.194Z,441.00
2023-04-26T01:23:00.193Z,441.00
2023-04-26T01:24:00.182Z,438.00
2023-04-26T01:25:00.172Z,438.00
2023-04-26T01:26:00.148Z,438.00
2023-04-26T01:27:00.154Z,438.00
2023-04-26T01:28:00.141Z,437.00
2023-04-26T01:29:00.189Z,436.00
2023-04-26T01:30:00.183Z,434.00
2023-04-26T01:31:00.232Z,435.00
2023-04-26T01:32:00.117Z,435.00
2023-04-26T01:33:00.154Z,434.00
2023-04-26T01:34:00.118Z,433.00
2023-04-26T01:35:00.145Z,432.00
2023-04-26T01:36:00.113Z,432.00
2023-04-26T01:37:00.074Z,432.00
2023-04-26T01:38:00.088Z,430.00
2023-04-26T01:39:00.117Z,430.00
2023-04-26T01:40:00.087Z,428.00
2023-04-26T01:41:00.069Z,432.00
2023-04-26T01:42:00.155Z,431.00
2023-04-26T01:43:00.163Z,429.00
2023-04-26T01:44:00.225Z,432.00
2023-04-26T01:45:00.308Z,431.00
2023-04-26T01:46:00.414Z,431.00
2023-04-26T01:47:00.428Z,432.00
2023-04-26T01:48:00.496Z,434.00
2023-04-26T01:49:00.531Z,435.00
2023-04-26T01:50:00.584Z,432.00
2023-04-26T01:51:00.636Z,434.00
2023-04-26T01:52:00.691Z,434.00
2023-04-26T01:53:00.754Z,435.00
2023-04-26T01:54:00.820Z,434.00
2023-04-26T01:55:00.875Z,433.00
2023-04-26T01:56:00.938Z,431.00
2023-04-26T01:57:00.997Z,432.00
2023-04-26T01:58:01.064Z,433.00
2023-04-26T01:59:01.190Z,434.00
2023-04-26T02:00:01.191Z,434.00
2023-04-26T02:01:01.242Z,435.00
2023-04-26T02:02:01.471Z,433.00
2023-04-26T02:03:01.436Z,430.00
2023-04-26T02:04:01.424Z,431.00
2023-04-26T02:05:01.503Z,430.00
2023-04-26T02:06:01.547Z,430.00
2023-04-26T02:07:01.612Z,431.00
2023-04-26T02:08:01.665Z,431.00
2023-04-26T02:09:01.733Z,430.00
2023-04-26T02:10:01.794Z,429.00
2023-04-26T02:11:01.847Z,428.00
2023-04-26T02:12:01.916Z,427.00
2023-04-26T02:13:01.976Z,429.00
2023-04-26T02:14:02.037Z,429.00
2023-04-26T02:15:02.126Z,431.00
2023-04-26T02:16:02.190Z,431.00
2023-04-26T02:17:02.207Z,433.00
2023-04-26T02:18:02.316Z,431.00
2023-04-26T02:19:02.373Z,430.00
2023-04-26T02:20:02.384Z,429.00
2023-04-26T02:21:02.453Z,429.00
2023-04-26T02:22:02.505Z,428.00
2023-04-26T02:23:02.561Z,431.00
2023-04-26T02:24:02.617Z,430.00
2023-04-26T02:25:02.677Z,430.00
2023-04-26T02:26:02.749Z,429.00
2023-04-26T02:27:02.808Z,427.00
2023-04-26T02:28:02.931Z,428.00
2023-04-26T02:29:02.938Z,429.00
2023-04-26T02:30:02.998Z,432.00
2023-04-26T02:31:03.131Z,432.00
2023-04-26T02:32:03.122Z,432.00
2023-04-26T02:33:03.229Z,430.00
2023-04-26T02:34:03.243Z,430.00
2023-04-26T02:35:03.345Z,430.00
2023-04-26T02:36:03.360Z,431.00
2023-04-26T02:37:03.426Z,430.00
2023-04-26T02:38:03.468Z,429.00
2023-04-26T02:39:03.564Z,428.00
2023-04-26T02:40:03.592Z,429.00
2023-04-26T02:41:03.668Z,427.00
2023-04-26T02:42:03.721Z,427.00
2023-04-26T02:43:03.778Z,425.00
2023-04-26T02:44:03.845Z,423.00
2023-04-26T02:45:03.904Z,424.00
2023-04-26T02:46:03.965Z,424.00
2023-04-26T02:47:04.098Z,422.00
2023-04-26T02:48:04.157Z,422.00
2023-04-26T02:49:04.166Z,421.00
2023-04-26T02:50:04.226Z,423.00
2023-04-26T02:51:04.315Z,422.00
2023-04-26T02:52:04.373Z,421.00
2023-04-26T02:53:04.412Z,421.00
2023-04-26T02:54:06.455Z,424.00
2023-04-26T02:55:04.467Z,426.00
2023-04-26T02:56:04.520Z,428.00
2023-04-26T02:57:04.497Z,429.00
2023-04-26T02:58:04.470Z,427.00
2023-04-26T02:59:04.470Z,424.00
2023-04-26T03:00:04.463Z,424.00
2023-04-26T03:01:04.516Z,424.00
2023-04-26T03:02:04.501Z,423.00
2023-04-26T03:03:04.631Z,424.00
2023-04-26T03:04:04.575Z,425.00
2023-04-26T03:05:04.453Z,427.00
2023-04-26T03:06:04.453Z,427.00
2023-04-26T03:07:04.482Z,427.00
2023-04-26T03:08:04.449Z,426.00
2023-04-26T03:09:04.463Z,427.00
2023-04-26T03:10:04.459Z,427.00
2023-04-26T03:11:04.454Z,425.00
2023-04-26T03:12:04.464Z,426.00
2023-04-26T03:13:04.459Z,425.00
2023-04-26T03:14:04.439Z,424.00
2023-04-26T03:15:04.534Z,424.00
2023-04-26T03:16:04.489Z,424.00
2023-04-26T03:17:04.473Z,424.00
2023-04-26T03:18:04.544Z,422.00
2023-04-26T03:19:04.469Z,421.00
2023-04-26T03:20:04.494Z,422.00
2023-04-26T03:21:04.562Z,421.00
2023-04-26T03:22:04.620Z,424.00
2023-04-26T03:23:04.714Z,425.00
2023-04-26T03:24:04.746Z,423.00
2023-04-26T03:25:04.809Z,423.00
2023-04-26T03:26:04.862Z,423.00
2023-04-26T03:27:04.917Z,423.00
2023-04-26T03:28:04.989Z,424.00
2023-04-26T03:29:05.023Z,424.00
2023-04-26T03:30:05.079Z,423.00
2023-04-26T03:31:05.173Z,423.00
2023-04-26T03:32:05.313Z,425.00
2023-04-26T03:33:05.345Z,424.00
2023-04-26T03:34:05.298Z,422.00
2023-04-26T03:35:05.348Z,422.00
2023-04-26T03:36:05.398Z,421.00
2023-04-26T03:37:05.466Z,422.00
2023-04-26T03:38:05.524Z,423.00
2023-04-26T03:39:05.573Z,424.00
2023-04-26T03:40:05.615Z,425.00
2023-04-26T03:41:05.684Z,423.00
2023-04-26T03:42:05.701Z,424.00
2023-04-26T03:43:05.737Z,426.00
2023-04-26T03:44:05.789Z,423.00
2023-04-26T03:45:05.844Z,423.00
2023-04-26T03:46:05.959Z,422.00
2023-04-26T03:47:05.920Z,421.00
2023-04-26T03:48:06.034Z,423.00
2023-04-26T03:49:06.011Z,423.00
2023-04-26T03:50:06.065Z,425.00
2023-04-26T03:51:06.109Z,424.00
2023-04-26T03:52:06.139Z,423.00
2023-04-26T03:53:06.182Z,424.00
2023-04-26T03:54:06.249Z,423.00
2023-04-26T03:55:06.312Z,423.00
2023-04-26T03:56:06.301Z,421.00
2023-04-26T03:57:06.352Z,421.00
2023-04-26T03:58:06.429Z,421.00
2023-04-26T03:59:06.426Z,423.00
2023-04-26T04:00:06.480Z,421.00
2023-04-26T04:01:06.515Z,423.00
2023-04-26T04:02:06.565Z,420.00
2023-04-26T04:03:06.750Z,420.00
2023-04-26T04:04:06.859Z,418.00
2023-04-26T04:05:06.753Z,416.00
2023-04-26T04:06:06.682Z,418.00
2023-04-26T04:07:06.719Z,418.00
2023-04-26T04:08:06.757Z,416.00
2023-04-26T04:09:06.795Z,417.00
2023-04-26T04:10:06.837Z,417.00
2023-04-26T04:11:06.989Z,417.00
2023-04-26T04:12:06.907Z,417.00
2023-04-26T04:13:06.940Z,417.00
2023-04-26T04:14:06.973Z,419.00
2023-04-26T04:15:07.003Z,422.00
2023-04-26T04:16:07.097Z,423.00
2023-04-26T04:17:07.070Z,423.00
2023-04-26T04:18:07.171Z,426.00
2023-04-26T04:19:07.155Z,426.00
2023-04-26T04:20:07.174Z,425.00
2023-04-26T04:21:07.207Z,425.00
2023-04-26T04:22:07.225Z,424.00
2023-04-26T04:23:07.253Z,423.00
2023-04-26T04:24:07.281Z,423.00
2023-04-26T04:25:07.329Z,423.00
2023-04-26T04:26:07.355Z,424.00
2023-04-26T04:27:07.393Z,425.00
2023-04-26T04:28:07.998Z,426.00
2023-04-26T04:29:07.441Z,425.00
2023-04-26T04:30:07.461Z,423.00
2023-04-26T04:31:07.570Z,422.00
2023-04-26T04:32:07.509Z,423.00
2023-04-26T04:33:07.586Z,424.00
2023-04-26T04:34:07.567Z,423.00
2023-04-26T04:35:07.593Z,423.00
2023-04-26T04:36:07.635Z,422.00
2023-04-26T04:37:07.651Z,422.00
2023-04-26T04:38:07.672Z,423.00
2023-04-26T04:39:07.698Z,424.00
2023-04-26T04:40:08.987Z,426.00
2023-04-26T04:41:07.721Z,427.00
2023-04-26T04:42:07.714Z,428.00
2023-04-26T04:43:07.727Z,427.00
2023-04-26T04:44:07.724Z,426.00
2023-04-26T04:45:07.700Z,426.00
2023-04-26T04:46:08.441Z,424.00
2023-04-26T04:47:07.714Z,422.00
2023-04-26T04:48:07.766Z,422.00
2023-04-26T04:49:07.721Z,420.00
2023-04-26T04:50:07.791Z,420.00
2023-04-26T04:51:07.801Z,424.00
2023-04-26T04:52:07.826Z,424.00
2023-04-26T04:53:07.913Z,421.00
2023-04-26T04:54:07.898Z,420.00
2023-04-26T04:55:07.935Z,419.00
2023-04-26T04:56:07.993Z,421.00
2023-04-26T04:57:08.001Z,421.00
2023-04-26T04:58:08.029Z,422.00
2023-04-26T04:59:08.107Z,426.00
2023-04-26T05:00:08.110Z,426.00
2023-04-26T05:01:08.135Z,427.00
2023-04-26T05:02:08.229Z,425.00
2023-04-26T05:03:08.370Z,422.00
2023-04-26T05:04:08.330Z,422.00
2023-04-26T05:05:08.326Z,423.00
2023-04-26T05:06:08.287Z,422.00
2023-04-26T05:07:08.306Z,424.00
2023-04-26T05:08:08.337Z,429.00
2023-04-26T05:09:08.358Z,430.00
2023-04-26T05:10:08.410Z,430.00
2023-04-26T05:11:08.420Z,430.00
2023-04-26T05:12:08.437Z,428.00
2023-04-26T05:13:08.454Z,427.00
2023-04-26T05:14:08.481Z,427.00
2023-04-26T05:15:08.529Z,428.00
2023-04-26T05:16:08.677Z,430.00
2023-04-26T05:17:09.019Z,430.00
2023-04-26T05:18:08.602Z,430.00
2023-04-26T05:19:09.538Z,432.00
2023-04-26T05:20:08.629Z,431.00
2023-04-26T05:21:08.641Z,430.00
2023-04-26T05:22:09.028Z,429.00
2023-04-26T05:23:08.726Z,429.00
2023-04-26T05:24:08.782Z,429.00
2023-04-26T05:25:08.803Z,429.00
2023-04-26T05:26:08.820Z,433.00
2023-04-26T05:27:09.043Z,437.00
2023-04-26T05:28:08.855Z,439.00
2023-04-26T05:29:08.870Z,442.00
2023-04-26T05:30:09.025Z,442.00
2023-04-26T05:31:10.736Z,446.00
2023-04-26T05:32:09.132Z,447.00
2023-04-26T05:33:08.998Z,449.00
2023-04-26T05:34:08.927Z,453.00
2023-04-26T05:35:09.063Z,458.00
2023-04-26T05:36:08.913Z,457.00
2023-04-26T05:37:08.913Z,456.00
2023-04-26T05:38:08.918Z,457.00
2023-04-26T05:39:08.938Z,456.00
2023-04-26T05:40:09.047Z,457.00
2023-04-26T05:41:08.915Z,461.00
2023-04-26T05:42:08.940Z,462.00
2023-04-26T05:43:08.909Z,462.00
2023-04-26T05:44:08.911Z,462.00
2023-04-26T05:45:08.918Z,463.00
2023-04-26T05:46:08.998Z,461.00
2023-04-26T05:47:09.003Z,458.00
2023-04-26T05:48:09.189Z,459.00
2023-04-26T05:49:08.912Z,465.00
2023-04-26T05:50:09.033Z,469.00
2023-04-26T05:51:08.917Z,474.00
2023-04-26T05:52:08.907Z,477.00
2023-04-26T05:53:08.951Z,482.00
2023-04-26T05:54:09.052Z,486.00
2023-04-26T05:55:09.085Z,497.00
2023-04-26T05:56:08.922Z,517.00
2023-04-26T05:57:08.917Z,559.00
2023-04-26T05:58:08.894Z,621.00
2023-04-26T05:59:09.044Z,627.00
2023-04-26T06:00:08.888Z,632.00
2023-04-26T06:01:08.872Z,636.00
2023-04-26T06:02:09.064Z,640.00
2023-04-26T06:03:09.204Z,645.00
2023-04-26T06:04:09.392Z,653.00
2023-04-26T06:05:09.360Z,665.00
2023-04-26T06:06:08.865Z,687.00
2023-04-26T06:07:08.837Z,703.00
2023-04-26T06:08:09.044Z,714.00
2023-04-26T06:09:08.837Z,726.00
2023-04-26T06:10:09.046Z,742.00
2023-04-26T06:11:08.827Z,764.00
2023-04-26T06:12:08.809Z,802.00
2023-04-26T06:13:08.807Z,792.00
2023-04-26T06:14:16.871Z,792.00
2023-04-26T06:15:09.034Z,797.00
2023-04-26T06:16:08.794Z,802.00
2023-04-26T06:17:08.820Z,803.00
2023-04-26T06:18:08.814Z,812.00
2023-04-26T06:19:08.779Z,816.00
2023-04-26T06:20:09.040Z,814.00
2023-04-26T06:21:08.747Z,815.00
2023-04-26T06:22:08.748Z,810.00
2023-04-26T06:23:08.730Z,807.00
2023-04-26T06:24:08.723Z,806.00
2023-04-26T06:25:08.727Z,802.00
2023-04-26T06:26:09.054Z,804.00
2023-04-26T06:27:08.704Z,807.00
2023-04-26T06:28:08.694Z,807.00
2023-04-26T06:29:08.698Z,809.00
2023-04-26T06:30:08.691Z,808.00
2023-04-26T06:31:09.135Z,807.00
2023-04-26T06:32:08.661Z,812.00
2023-04-26T06:33:08.681Z,817.00
2023-04-26T06:34:08.699Z,818.00
2023-04-26T06:35:09.098Z,818.00
2023-04-26T06:36:08.744Z,820.00
2023-04-26T06:37:09.066Z,825.00
2023-04-26T06:38:09.172Z,826.00
2023-04-26T06:39:09.930Z,828.00
2023-04-26T06:40:16.375Z,834.00
2023-04-26T06:41:09.106Z,837.00
2023-04-26T06:42:08.962Z,836.00
2023-04-26T06:43:08.953Z,836.00
2023-04-26T06:44:08.948Z,840.00
2023-04-26T06:45:09.055Z,849.00
2023-04-26T06:46:08.970Z,851.00
2023-04-26T06:47:08.922Z,852.00
2023-04-26T06:48:09.426Z,845.00
2023-04-26T06:49:08.909Z,838.00
2023-04-26T06:50:09.106Z,833.00
2023-04-26T06:51:08.973Z,832.00
2023-04-26T06:52:09.660Z,822.00
2023-04-26T06:53:08.896Z,806.00
2023-04-26T06:54:09.126Z,791.00
2023-04-26T06:55:09.066Z,766.00
2023-04-26T06:56:08.864Z,761.00
2023-04-26T06:57:08.861Z,754.00
2023-04-26T06:58:09.277Z,743.00
2023-04-26T06:59:08.847Z,736.00
2023-04-26T07:00:08.917Z,733.00
2023-04-26T07:01:12.136Z,727.00
2023-04-26T07:02:09.302Z,724.00
2023-04-26T07:03:08.988Z,719.00
2023-04-26T07:04:09.958Z,714.00
2023-04-26T07:05:09.002Z,711.00
2023-04-26T07:06:08.868Z,710.00
2023-04-26T07:07:10.536Z,705.00
2023-04-26T07:08:09.433Z,701.00
2023-04-26T07:09:09.021Z,694.00
2023-04-26T07:10:08.849Z,688.00
2023-04-26T07:11:08.852Z,682.00
2023-04-26T07:12:08.854Z,682.00
2023-04-26T07:13:09.727Z,682.00
2023-04-26T07:14:08.829Z,683.00
2023-04-26T07:15:08.833Z,686.00
2023-04-26T07:16:08.872Z,685.00
2023-04-26T07:17:08.807Z,685.00
2023-04-26T07:18:09.110Z,679.00
2023-04-26T07:19:08.821Z,674.00
2023-04-26T07:20:09.080Z,669.00
2023-04-26T07:21:08.774Z,665.00
2023-04-26T07:22:09.215Z,664.00
2023-04-26T07:23:09.114Z,667.00
2023-04-26T07:24:08.752Z,670.00
2023-04-26T07:25:08.758Z,666.00
2023-04-26T07:26:08.748Z,668.00
2023-04-26T07:27:08.762Z,668.00
2023-04-26T07:28:09.067Z,670.00
2023-04-26T07:29:08.864Z,674.00
2023-04-26T07:30:09.137Z,680.00
2023-04-26T07:31:10.613Z,683.00
2023-04-26T07:32:09.059Z,694.00
2023-04-26T07:33:09.178Z,711.00
2023-04-26T07:34:08.997Z,717.00
2023-04-26T07:35:08.997Z,720.00
2023-04-26T07:36:09.001Z,720.00
2023-04-26T07:37:08.985Z,721.00
2023-04-26T07:38:09.100Z,722.00
2023-04-26T07:39:09.004Z,729.00
2023-04-26T07:40:09.975Z,726.00
2023-04-26T07:41:09.077Z,728.00
2023-04-26T07:42:08.958Z,722.00
2023-04-26T07:43:08.985Z,726.00
2023-04-26T07:44:08.964Z,727.00
2023-04-26T07:45:09.098Z,724.00
2023-04-26T07:46:09.045Z,724.00
2023-04-26T07:47:08.941Z,730.00
2023-04-26T07:48:08.984Z,733.00
2023-04-26T07:49:08.948Z,732.00
2023-04-26T07:50:09.128Z,736.00
2023-04-26T07:51:09.096Z,733.00
2023-04-26T07:52:09.132Z,724.00
2023-04-26T07:53:09.151Z,725.00
2023-04-26T07:54:09.210Z,730.00
2023-04-26T07:55:09.796Z,735.00
2023-04-26T07:56:09.591Z,735.00
2023-04-26T07:57:10.146Z,741.00
2023-04-26T07:58:09.416Z,747.00
2023-04-26T07:59:09.474Z,748.00
2023-04-26T08:00:09.587Z,750.00
2023-04-26T08:01:10.097Z,746.00
2023-04-26T08:02:10.122Z,746.00
2023-04-26T08:03:09.846Z,746.00
2023-04-26T08:04:10.103Z,748.00
2023-04-26T08:05:10.249Z,751.00
2023-04-26T08:06:10.198Z,748.00
2023-04-26T08:07:09.955Z,751.00
2023-04-26T08:08:11.015Z,755.00
2023-04-26T08:09:10.050Z,756.00
2023-04-26T08:10:10.599Z,756.00
2023-04-26T08:11:10.367Z,768.00
2023-04-26T08:12:10.598Z,772.00
2023-04-26T08:13:10.272Z,772.00
2023-04-26T08:14:10.304Z,779.00
2023-04-26T08:15:10.598Z,790.00
2023-04-26T08:16:10.404Z,784.00
2023-04-26T08:17:10.563Z,771.00
2023-04-26T08:18:10.555Z,773.00
2023-04-26T08:19:10.556Z,774.00
2023-04-26T08:20:10.619Z,953.00
2023-04-26T08:21:11.092Z,809.00
2023-04-26T08:22:10.677Z,793.00
2023-04-26T08:23:10.713Z,781.00
2023-04-26T08:24:10.757Z,784.00
2023-04-26T08:25:11.093Z,789.00
2023-04-26T08:26:11.096Z,797.00
2023-04-26T08:27:10.912Z,800.00
2023-04-26T08:28:10.919Z,798.00
2023-04-26T08:29:10.982Z,793.00
2023-04-26T08:30:11.002Z,793.00
2023-04-26T08:31:11.102Z,791.00
2023-04-26T08:32:11.091Z,792.00
2023-04-26T08:33:11.174Z,792.00
2023-04-26T08:34:11.176Z,790.00
2023-04-26T08:35:11.201Z,798.00
2023-04-26T08:36:11.589Z,799.00
2023-04-26T08:37:11.289Z,803.00
2023-04-26T08:38:11.332Z,805.00
2023-04-26T08:39:11.366Z,808.00
2023-04-26T08:40:11.415Z,812.00
2023-04-26T08:41:11.588Z,814.00
2023-04-26T08:42:11.499Z,814.00
2023-04-26T08:43:11.567Z,817.00
2023-04-26T08:44:11.578Z,831.00
2023-04-26T08:45:12.096Z,834.00
2023-04-26T08:46:11.672Z,849.00
2023-04-26T08:47:11.696Z,860.00
2023-04-26T08:48:11.791Z,867.00
2023-04-26T08:49:11.762Z,871.00
2023-04-26T08:50:12.104Z,876.00
2023-04-26T08:51:11.824Z,895.00
2023-04-26T08:52:11.859Z,903.00
2023-04-26T08:53:11.887Z,901.00
2023-04-26T08:54:11.918Z,904.00
2023-04-26T08:55:11.932Z,907.00
2023-04-26T08:56:11.969Z,915.00
2023-04-26T08:57:12.598Z,938.00
2023-04-26T08:58:12.005Z,949.00
2023-04-26T08:59:13.886Z,946.00
2023-04-26T09:00:12.033Z,953.00
2023-04-26T09:01:12.133Z,974.00
2023-04-26T09:02:12.070Z,979.00
2023-04-26T09:03:12.081Z,969.00
2023-04-26T09:04:12.316Z,959.00
2023-04-26T09:05:12.089Z,960.00
2023-04-26T09:06:12.113Z,964.00
2023-04-26T09:07:12.050Z,970.00
2023-04-26T09:08:11.929Z,972.00
2023-04-26T09:09:11.914Z,968.00
2023-04-26T09:10:11.901Z,962.00
2023-04-26T09:11:12.256Z,960.00
2023-04-26T09:12:11.867Z,959.00
2023-04-26T09:13:11.873Z,960.00
2023-04-26T09:14:11.864Z,950.00
2023-04-26T09:15:11.873Z,953.00
2023-04-26T09:16:12.142Z,954.00
2023-04-26T09:17:11.820Z,951.00
2023-04-26T09:18:11.978Z,946.00
2023-04-26T09:19:11.792Z,953.00
2023-04-26T09:20:11.776Z,957.00
2023-04-26T09:21:12.114Z,957.00
2023-04-26T09:22:11.763Z,965.00
2023-04-26T09:23:11.755Z,969.00
2023-04-26T09:24:12.113Z,962.00
2023-04-26T09:25:11.701Z,960.00
2023-04-26T09:26:11.719Z,917.00
2023-04-26T09:27:11.712Z,929.00
2023-04-26T09:28:12.688Z,928.00
2023-04-26T09:29:12.113Z,928.00
2023-04-26T09:30:11.659Z,928.00
2023-04-26T09:31:12.384Z,923.00
2023-04-26T09:32:11.635Z,918.00
2023-04-26T09:33:11.702Z,911.00
2023-04-26T09:34:11.619Z,904.00
2023-04-26T09:35:11.616Z,902.00
2023-04-26T09:36:11.625Z,902.00
2023-04-26T09:37:11.583Z,886.00
2023-04-26T09:38:13.875Z,879.00
2023-04-26T09:39:11.594Z,876.00
2023-04-26T09:40:11.581Z,888.00
2023-04-26T09:41:11.627Z,888.00
2023-04-26T09:42:11.556Z,887.00
2023-04-26T09:43:11.601Z,881.00
2023-04-26T09:44:11.516Z,876.00
2023-04-26T09:45:11.505Z,880.00
2023-04-26T09:46:11.626Z,884.00
2023-04-26T09:47:11.649Z,887.00
2023-04-26T09:48:11.464Z,861.00
2023-04-26T09:49:11.450Z,840.00
2023-04-26T09:50:11.622Z,824.00
2023-04-26T09:51:11.617Z,824.00
2023-04-26T09:52:11.415Z,810.00
2023-04-26T09:53:11.389Z,793.00
2023-04-26T09:54:11.385Z,773.00
2023-04-26T09:55:19.064Z,759.00
2023-04-26T09:56:11.635Z,746.00
2023-04-26T09:57:11.346Z,744.00
2023-04-26T09:58:11.360Z,746.00
2023-04-26T09:59:11.322Z,750.00
2023-04-26T10:00:11.621Z,752.00
2023-04-26T10:01:11.789Z,752.00
2023-04-26T10:02:11.313Z,747.00
2023-04-26T10:03:11.503Z,740.00
2023-04-26T10:04:11.321Z,733.00
2023-04-26T10:05:11.283Z,736.00
2023-04-26T10:06:11.613Z,738.00
2023-04-26T10:07:11.209Z,751.00
2023-04-26T10:08:11.226Z,813.00
2023-04-26T10:09:12.008Z,815.00
2023-04-26T10:10:11.167Z,802.00
2023-04-26T10:11:11.796Z,789.00
2023-04-26T10:12:11.158Z,782.00
2023-04-26T10:13:11.109Z,777.00
2023-04-26T10:14:11.093Z,763.00
2023-04-26T10:15:11.074Z,751.00
2023-04-26T10:16:11.172Z,754.00
2023-04-26T10:17:11.040Z,756.00
2023-04-26T10:18:11.194Z,754.00
2023-04-26T10:19:11.249Z,760.00
2023-04-26T10:20:11.147Z,774.00
2023-04-26T10:21:11.220Z,775.00
2023-04-26T10:22:11.234Z,773.00
2023-04-26T10:23:11.627Z,816.00
2023-04-26T10:24:11.250Z,821.00
2023-04-26T10:25:11.284Z,830.00
2023-04-26T10:26:11.627Z,830.00
2023-04-26T10:27:11.336Z,841.00
2023-04-26T10:28:11.359Z,850.00
2023-04-26T10:29:11.386Z,858.00
2023-04-26T10:30:19.285Z,846.00
2023-04-26T10:31:12.013Z,845.00
2023-04-26T10:32:12.123Z,869.00
2023-04-26T10:33:11.875Z,852.00
2023-04-26T10:34:12.027Z,830.00
2023-04-26T10:35:11.765Z,730.00
2023-04-26T10:36:12.036Z,725.00
2023-04-26T10:37:11.470Z,718.00
2023-04-26T10:38:11.874Z,720.00
2023-04-26T10:39:11.429Z,717.00
2023-04-26T10:40:11.706Z,714.00
2023-04-26T10:41:11.625Z,709.00
2023-04-26T10:42:12.434Z,704.00
2023-04-26T10:43:11.598Z,700.00
2023-04-26T10:44:11.193Z,696.00
2023-04-26T10:45:11.632Z,689.00
2023-04-26T10:46:11.610Z,690.00
2023-04-26T10:47:11.650Z,691.00
2023-04-26T10:48:11.520Z,688.00
2023-04-26T10:49:11.709Z,687.00
2023-04-26T10:50:11.311Z,662.00
2023-04-26T10:51:11.685Z,665.00
2023-04-26T10:52:11.383Z,674.00
2023-04-26T10:53:11.797Z,689.00
2023-04-26T10:54:11.423Z,697.00
2023-04-26T10:55:11.496Z,711.00
2023-04-26T10:56:11.640Z,723.00
2023-04-26T10:57:11.541Z,727.00
2023-04-26T10:58:11.644Z,728.00
2023-04-26T10:59:30.716Z,738.00
2023-04-26T11:00:11.620Z,746.00
2023-04-26T11:01:11.772Z,759.00
2023-04-26T11:02:11.641Z,768.00
2023-04-26T11:03:11.790Z,774.00
2023-04-26T11:04:11.649Z,778.00
2023-04-26T11:05:11.554Z,784.00
2023-04-26T11:06:11.646Z,786.00
2023-04-26T11:07:11.591Z,790.00
2023-04-26T11:08:11.965Z,796.00
2023-04-26T11:09:11.469Z,802.00
2023-04-26T11:10:11.463Z,805.00
2023-04-26T11:11:11.467Z,814.00
2023-04-26T11:12:11.441Z,818.00
2023-04-26T11:13:11.427Z,819.00
2023-04-26T11:14:11.404Z,821.00
2023-04-26T11:15:11.744Z,815.00
2023-04-26T11:16:11.580Z,816.00
2023-04-26T11:17:11.984Z,816.00
2023-04-26T11:18:11.354Z,810.00
2023-04-26T11:19:11.326Z,800.00
2023-04-26T11:20:11.310Z,778.00
2023-04-26T11:21:11.298Z,756.00
2023-04-26T11:22:11.288Z,751.00
2023-04-26T11:23:11.314Z,758.00
2023-04-26T11:24:11.268Z,763.00
2023-04-26T11:25:11.248Z,769.00
2023-04-26T11:26:11.652Z,779.00
2023-04-26T11:27:11.218Z,786.00
2023-04-26T11:28:11.204Z,788.00
2023-04-26T11:29:11.190Z,781.00
2023-04-26T11:30:11.199Z,773.00
2023-04-26T11:31:11.713Z,771.00
2023-04-26T11:32:11.779Z,766.00
2023-04-26T11:33:11.347Z,764.00
2023-04-26T11:34:11.331Z,760.00
2023-04-26T11:35:11.356Z,762.00
2023-04-26T11:36:11.660Z,758.00
2023-04-26T11:37:11.433Z,758.00
2023-04-26T11:38:11.477Z,755.00
2023-04-26T11:39:13.054Z,745.00
2023-04-26T11:40:11.514Z,747.00
2023-04-26T11:41:11.485Z,748.00
2023-04-26T11:42:11.476Z,753.00
2023-04-26T11:43:11.458Z,756.00
2023-04-26T11:44:11.422Z,755.00
2023-04-26T11:45:11.666Z,749.00
2023-04-26T11:46:11.475Z,750.00
2023-04-26T11:47:11.443Z,742.00
2023-04-26T11:48:11.343Z,732.00
2023-04-26T11:49:11.342Z,725.00
2023-04-26T11:50:11.320Z,719.00
2023-04-26T11:51:11.663Z,712.00
2023-04-26T11:52:11.294Z,708.00
2023-04-26T11:53:11.267Z,707.00
2023-04-26T11:54:11.249Z,700.00
2023-04-26T11:55:11.275Z,698.00
2023-04-26T11:56:11.231Z,702.00
2023-04-26T11:57:11.220Z,708.00
2023-04-26T11:58:11.212Z,718.00
2023-04-26T11:59:11.193Z,722.00
2023-04-26T12:00:11.190Z,735.00
2023-04-26T12:01:11.679Z,746.00
2023-04-26T12:02:11.770Z,756.00
2023-04-26T12:03:11.410Z,756.00
2023-04-26T12:04:11.463Z,756.00
2023-04-26T12:05:11.332Z,753.00
2023-04-26T12:06:11.097Z,745.00
2023-04-26T12:07:11.079Z,740.00
2023-04-26T12:08:11.080Z,750.00
2023-04-26T12:09:11.130Z,760.00
2023-04-26T12:10:11.265Z,760.00
2023-04-26T12:11:11.185Z,764.00
2023-04-26T12:12:11.668Z,787.00
2023-04-26T12:13:11.214Z,813.00
2023-04-26T12:14:11.247Z,813.00
2023-04-26T12:15:12.575Z,817.00
2023-04-26T12:16:22.517Z,815.00
2023-04-26T12:17:11.764Z,814.00
2023-04-26T12:18:11.671Z,810.00
2023-04-26T12:19:11.226Z,814.00
2023-04-26T12:20:11.256Z,820.00
2023-04-26T12:21:11.198Z,826.00
2023-04-26T12:22:11.190Z,830.00
2023-04-26T12:23:11.195Z,832.00
2023-04-26T12:24:11.168Z,826.00
2023-04-26T12:25:11.150Z,820.00
2023-04-26T12:26:11.254Z,816.00
2023-04-26T12:27:11.152Z,811.00
2023-04-26T12:28:11.281Z,811.00
2023-04-26T12:29:11.089Z,811.00